createdAt,value
2023-03-05T00:03:07.146Z,100029.63
2023-03-05T00:06:21.223Z,100021.38
2023-03-05T00:09:35.827Z,100018.56
2023-03-05T00:12:48.586Z,100014.81
2023-03-05T00:16:03.561Z,100023.72
2023-03-05T00:19:16.302Z,100022.09
2023-03-05T00:22:28.629Z,100023.87
2023-03-05T00:25:41.381Z,100028.06
2023-03-05T00:28:55.029Z,100014.28
2023-03-05T00:32:07.776Z,100030.78
2023-03-05T00:35:20.179Z,100025.38
2023-03-05T00:38:33.674Z,100019.16
2023-03-05T00:41:46.144Z,100022.00
2023-03-05T00:44:58.794Z,100031.59
2023-03-05T00:48:11.139Z,100029.97
2023-03-05T00:51:24.673Z,100032.12
2023-03-05T00:54:36.971Z,100019.56
2023-03-05T00:57:49.604Z,100030.13
2023-03-05T01:01:02.856Z,100021.06
2023-03-05T01:04:15.566Z,100014.31
2023-03-05T01:07:27.874Z,100018.34
2023-03-05T01:10:40.689Z,100017.25
2023-03-05T01:13:53.007Z,100016.44
2023-03-05T01:17:06.692Z,100012.81
2023-03-05T01:20:19.897Z,100018.09
2023-03-05T01:23:34.460Z,100004.56
2023-03-05T01:26:47.138Z,100017.41
2023-03-05T01:29:59.736Z,100014.97
2023-03-05T01:33:12.043Z,100016.87
2023-03-05T01:36:25.269Z,100024.28
2023-03-05T01:39:37.696Z,100022.41
2023-03-05T01:42:56.766Z,100017.00
2023-03-05T01:46:39.523Z,100021.84
2023-03-05T01:49:54.261Z,100009.97
2023-03-05T01:53:06.807Z,100016.72
2023-03-05T01:56:19.419Z,100011.06
2023-03-05T01:59:31.833Z,100017.00
2023-03-05T02:02:45.020Z,100009.41
2023-03-05T02:05:57.633Z,100015.62
2023-03-05T02:09:10.162Z,100013.69
2023-03-05T02:12:23.005Z,100023.03
2023-03-05T02:15:36.041Z,100021.22
2023-03-05T02:18:48.392Z,100016.59
2023-03-05T02:22:01.122Z,100013.91
2023-03-05T02:25:17.357Z,100016.06
2023-03-05T02:28:39.836Z,100012.53
2023-03-05T02:31:53.170Z,100018.78
2023-03-05T02:35:06.222Z,100024.03
2023-03-05T02:38:19.696Z,100017.78
2023-03-05T02:41:35.079Z,100019.66
2023-03-05T02:44:47.541Z,100018.84
2023-03-05T02:48:01.654Z,100009.09
2023-03-05T02:51:14.417Z,100011.41
2023-03-05T02:54:28.300Z,100018.16
2023-03-05T02:57:40.939Z,100011.94
2023-03-05T03:00:53.745Z,100019.53
2023-03-05T03:04:06.227Z,100018.41
2023-03-05T03:07:18.995Z,100012.31
2023-03-05T03:10:31.382Z,100016.91
2023-03-05T03:13:44.012Z,100020.50
2023-03-05T03:16:56.419Z,100011.28
2023-03-05T03:20:10.457Z,100013.97
2023-03-05T03:23:23.292Z,99999.59
2023-03-05T03:26:35.931Z,100006.41
2023-03-05T03:29:48.232Z,100004.53
2023-03-05T03:33:00.821Z,100005.19
2023-03-05T03:36:13.137Z,100004.38
2023-03-05T03:39:25.758Z,100009.91
2023-03-05T03:42:38.051Z,100000.19
2023-03-05T03:45:50.692Z,100002.44
2023-03-05T03:49:03.169Z,99999.41
2023-03-05T03:52:15.918Z,99993.00
2023-03-05T03:55:28.269Z,99992.78
2023-03-05T03:58:40.906Z,99999.56
2023-03-05T04:01:53.209Z,99996.03
2023-03-05T04:05:06.348Z,100001.84
2023-03-05T04:08:18.709Z,99996.31
2023-03-05T04:11:31.545Z,99994.44
2023-03-05T04:14:50.023Z,99996.03
2023-03-05T04:18:02.704Z,99995.75
2023-03-05T04:21:15.104Z,99990.62
2023-03-05T04:24:27.749Z,99990.75
2023-03-05T04:27:42.769Z,99996.06
2023-03-05T04:30:55.395Z,99988.63
2023-03-05T04:34:07.807Z,99986.94
2023-03-05T04:37:20.372Z,99989.44
2023-03-05T04:40:32.806Z,99990.31
2023-03-05T04:43:45.421Z,99974.31
2023-03-05T04:46:57.774Z,99987.38
2023-03-05T04:50:11.740Z,99990.75
2023-03-05T04:53:24.084Z,99990.56
2023-03-05T04:56:36.676Z,99988.88
2023-03-05T04:59:48.996Z,99988.78
2023-03-05T05:03:01.690Z,99986.94
2023-03-05T05:06:14.055Z,99990.75
2023-03-05T05:09:26.650Z,99992.41
2023-03-05T05:12:39.093Z,99990.19
2023-03-05T05:15:51.886Z,99990.41
2023-03-05T05:19:04.339Z,99994.37
2023-03-05T05:22:16.975Z,99990.84
2023-03-05T05:25:29.375Z,99999.53
2023-03-05T05:28:45.640Z,99993.78
2023-03-05T05:31:58.021Z,99993.72
2023-03-05T05:35:10.980Z,99995.03
2023-03-05T05:38:23.286Z,99999.88
2023-03-05T05:41:35.900Z,100002.47
2023-03-05T05:44:48.248Z,100006.00
2023-03-05T05:48:00.888Z,100003.78
2023-03-05T05:51:15.108Z,100002.25
2023-03-05T05:54:27.744Z,100008.72
2023-03-05T05:57:40.179Z,100015.50
2023-03-05T06:00:52.797Z,100017.69
2023-03-05T06:04:05.377Z,100014.91
2023-03-05T06:07:17.731Z,100015.91
2023-03-05T06:10:30.352Z,100020.91
2023-03-05T06:13:42.713Z,100015.25
2023-03-05T06:16:55.432Z,100020.22
2023-03-05T06:20:08.564Z,100016.69
2023-03-05T06:23:21.213Z,100035.19
2023-03-05T06:26:33.540Z,100033.84
2023-03-05T06:29:46.192Z,100030.13
2023-03-05T06:32:59.606Z,100029.91
2023-03-05T06:36:13.713Z,100028.47
2023-03-05T06:39:26.009Z,100037.03
2023-03-05T06:42:38.680Z,100039.12
2023-03-05T06:46:00.872Z,100035.31
2023-03-05T06:49:13.497Z,100038.22
2023-03-05T06:52:25.868Z,100035.72
2023-03-05T06:55:39.833Z,100038.59
2023-03-05T06:58:52.218Z,100038.59
2023-03-05T07:02:04.945Z,100041.28
2023-03-05T07:05:17.403Z,100043.38
2023-03-05T07:08:30.061Z,100050.03
2023-03-05T07:11:42.508Z,100041.78
2023-03-05T07:14:55.118Z,100042.06
2023-03-05T07:18:07.536Z,100043.78
2023-03-05T07:21:24.351Z,100040.16
2023-03-05T07:24:36.825Z,100039.53
2023-03-05T07:27:49.443Z,100038.84
2023-03-05T07:31:22.592Z,100040.03
2023-03-05T07:34:37.601Z,100036.63
2023-03-05T07:37:50.269Z,100043.09
2023-03-05T07:41:19.886Z,100037.84
2023-03-05T07:44:32.252Z,100038.00
2023-03-05T07:47:44.905Z,100032.34
2023-03-05T07:51:01.963Z,100032.16
2023-03-05T07:54:14.464Z,100033.50
2023-03-05T07:57:26.717Z,100033.09
2023-03-05T08:00:39.533Z,100029.59
2023-03-05T08:03:52.244Z,100035.09
2023-03-05T08:07:04.695Z,100026.09
2023-03-05T08:10:17.472Z,100035.09
2023-03-05T08:13:29.778Z,100024.69
2023-03-05T08:16:42.464Z,100019.59
2023-03-05T08:19:57.740Z,100026.34
2023-03-05T08:23:10.353Z,100025.78
2023-03-05T08:26:23.513Z,100023.59
2023-03-05T08:29:36.238Z,100019.34
2023-03-05T08:32:49.410Z,100028.75
2023-03-05T08:36:01.997Z,100025.16
2023-03-05T08:39:14.343Z,100025.22
2023-03-05T08:42:26.969Z,100039.25
2023-03-05T08:45:40.107Z,100028.28
2023-03-05T08:48:52.708Z,100027.75
2023-03-05T08:52:05.184Z,100028.13
2023-03-05T08:55:17.912Z,100031.34
2023-03-05T08:58:30.252Z,100031.16
2023-03-05T09:01:42.968Z,100032.16
2023-03-05T09:04:55.319Z,100026.87
2023-03-05T09:08:07.948Z,100029.12
2023-03-05T09:11:20.683Z,100025.28
2023-03-05T09:14:33.317Z,100024.94
2023-03-05T09:17:45.707Z,100026.38
2023-03-05T09:20:58.284Z,100029.63
2023-03-05T09:24:11.859Z,100022.03
2023-03-05T09:27:24.473Z,100015.56
2023-03-05T09:30:36.884Z,100013.66
2023-03-05T09:33:49.686Z,100011.69
2023-03-05T09:37:03.118Z,100006.84
2023-03-05T09:40:17.058Z,100002.16
2023-03-05T09:44:15.520Z,99994.88
2023-03-05T09:47:40.383Z,99995.81
2023-03-05T09:51:00.229Z,99999.25
2023-03-05T09:54:17.875Z,99995.47
2023-03-05T09:57:36.681Z,100000.97
2023-03-05T10:00:50.681Z,99989.59
2023-03-05T10:04:09.298Z,99988.03
2023-03-05T10:07:26.240Z,99988.16
2023-03-05T10:10:43.289Z,99993.47
2023-03-05T10:13:55.796Z,99989.91
2023-03-05T10:17:33.548Z,99978.22
2023-03-05T10:20:59.483Z,99977.91
2023-03-05T10:24:32.179Z,99982.06
2023-03-05T10:28:06.109Z,99970.06
2023-03-05T10:31:44.789Z,99965.00
2023-03-05T10:35:18.360Z,99955.25
2023-03-05T10:38:40.077Z,99957.50
2023-03-05T10:42:02.672Z,99949.97
2023-03-05T10:45:24.653Z,99940.06
2023-03-05T10:48:39.904Z,99932.37
2023-03-05T10:52:28.290Z,99935.75
2023-03-05T10:55:40.712Z,99942.22
2023-03-05T10:58:53.622Z,99941.25
2023-03-05T11:02:08.897Z,99924.28
2023-03-05T11:06:00.617Z,99918.53
2023-03-05T11:09:32.481Z,99917.94
2023-03-05T11:12:45.322Z,99923.50
2023-03-05T11:16:05.553Z,99918.69
2023-03-05T11:19:29.942Z,99910.47
2023-03-05T11:22:42.287Z,99907.88
2023-03-05T11:26:21.897Z,99916.91
2023-03-05T11:29:34.788Z,99923.47
2023-03-05T11:32:47.423Z,99930.19
2023-03-05T11:36:17.985Z,99911.25
2023-03-05T11:39:33.122Z,99911.84
2023-03-05T11:42:45.473Z,99903.97
2023-03-05T11:46:05.256Z,99894.16
2023-03-05T11:49:22.815Z,99893.50
2023-03-05T11:52:58.293Z,99902.22
2023-03-05T11:56:13.422Z,99884.41
2023-03-05T11:59:28.858Z,99882.75
2023-03-05T12:02:41.254Z,99876.00
2023-03-05T12:05:57.090Z,99876.34
2023-03-05T12:09:11.537Z,99880.72
2023-03-05T12:12:37.512Z,99862.53
2023-03-05T12:15:49.992Z,99867.72
2023-03-05T12:19:05.640Z,99844.38
2023-03-05T12:22:32.964Z,99858.63
2023-03-05T12:25:53.071Z,99849.78
2023-03-05T12:29:05.438Z,99852.59
2023-03-05T12:32:33.355Z,99871.22
2023-03-05T12:35:46.460Z,99852.62
2023-03-05T12:39:00.203Z,99859.38
2023-03-05T12:42:31.424Z,99832.03
2023-03-05T12:45:45.492Z,99830.81
2023-03-05T12:48:57.841Z,99831.97
2023-03-05T12:52:23.300Z,99832.50
2023-03-05T12:55:47.630Z,99832.78
2023-03-05T12:59:00.523Z,99824.41
2023-03-05T13:02:39.922Z,99813.34
2023-03-05T13:05:57.122Z,99796.25
2023-03-05T13:09:38.735Z,99805.75
2023-03-05T13:12:55.431Z,99817.53
2023-03-05T13:16:20.205Z,99792.00
2023-03-05T13:19:33.361Z,99793.25
2023-03-05T13:22:45.710Z,99790.19
2023-03-05T13:26:12.258Z,99792.16
2023-03-05T13:29:30.724Z,99793.75
2023-03-05T13:32:43.373Z,99797.25
2023-03-05T13:35:55.698Z,99810.34
2023-03-05T13:39:15.803Z,99804.63
2023-03-05T13:42:31.403Z,99794.94
2023-03-05T13:45:44.577Z,99786.41
2023-03-05T13:48:57.698Z,99796.06
2023-03-05T13:52:10.325Z,99774.81
2023-03-05T13:55:22.657Z,99772.50
2023-03-05T13:58:54.618Z,99777.25
2023-03-05T14:02:18.121Z,99773.16
2023-03-05T14:05:31.427Z,99781.84
2023-03-05T14:08:43.748Z,99793.34
2023-03-05T14:11:58.614Z,99779.00
2023-03-05T14:15:22.893Z,99763.28
2023-03-05T14:18:35.879Z,99790.13
2023-03-05T14:21:49.648Z,99767.25
2023-03-05T14:25:03.219Z,99767.56
2023-03-05T14:28:18.217Z,99757.22
2023-03-05T14:31:34.347Z,99754.50
2023-03-05T14:34:48.878Z,99768.75
2023-03-05T14:38:01.562Z,99761.09
2023-03-05T14:41:29.256Z,99771.47
2023-03-05T14:44:42.097Z,99766.34
2023-03-05T14:47:55.345Z,99766.63
2023-03-05T14:51:09.238Z,99759.50
2023-03-05T14:54:22.910Z,99762.50
2023-03-05T14:57:35.498Z,99738.06
2023-03-05T15:00:50.899Z,99735.59
2023-03-05T15:04:03.794Z,99714.47
2023-03-05T15:07:21.185Z,99717.22
2023-03-05T15:10:33.820Z,99720.91
2023-03-05T15:13:46.196Z,99727.97
2023-03-05T15:16:58.818Z,99742.37
2023-03-05T15:20:14.383Z,99733.59
2023-03-05T15:23:29.727Z,99738.59
2023-03-05T15:26:42.108Z,99737.22
2023-03-05T15:29:54.713Z,99744.50
2023-03-05T15:33:12.565Z,99740.09
2023-03-05T15:36:25.204Z,99746.19
2023-03-05T15:39:37.505Z,99742.47
2023-03-05T15:42:50.204Z,99739.97
2023-03-05T15:46:05.560Z,99735.78
2023-03-05T15:49:18.252Z,99745.78
